Hlavní strana
METAR-TAF:

METAR-TAF

Letiště :

Istanbul Atatürkovo letiště

Istanbul Atatürk, Turecko

zeměpisná šířka: 40-58N, zeměpisná délka: 028-49E, výška: 48 m

Aktuální stav počasí

Zpráva byla vytvořena před 35 minutami, v 08:20 UTC
Jihojihozápadní vítr 9 kt
Teplota 27°C
Vlhkost vzduchu 70%
Tlak 1010 hPa
Viditelnost 10 km a více
Polojasno ve výšce 3500 ft

METAR: LTBA 160820Z 21009KT 9999 SCT035 27/21 Q1010 NOSIG RMK RWY17L 21011KT RWY05 20008KT RWY23 23011KT

Čas: 11:55 (08:55 UTC)

Předpověď počasí

Zpráva byla vytvořena před 4 hodinami a 15 minutami, v 04:40 UTC
Předpověď platná od 16 v 06 UTC do 17 v 12 UTC
Západojihozápadní vítr 7 kt
Viditelnost 10 km a více
Žádná oblačnost pod 1500 m, nevyskytují se cumulonimby.
Změna
od 16 v 06 UTC do 16 v 08 UTC
Polojasno ve výšce 3500 ft
Změna
od 16 v 13 UTC do 16 v 16 UTC
Viditelnost 10 km a více
Žádná oblačnost pod 1500 m, nevyskytují se cumulonimby.

TAF: LTBA 160440Z 1606/1712 24007KT CAVOK BECMG 1606/1608 SCT035 BECMG 1613/1616 CAVOK

Stav a předpovědi počasí z více než 4 000 letišť (zprávy METAR a TAF).

Červené a žluté tečky na mapě představují dostupné meteorologické stanice.

Když kurzor umístíte na tečku, zobrazí se název stanice.

Pak kliknutím zobrazíte stav a předpověď počasí.

Chcete-li změnit mapu, kliknutím na zelené tlačítko se znaménkem +mapu přiblížíte, kliknutím na zelené tlačítko se znaménkem – mapu oddálíte a kliknutím na zelené šipky přejdete na sousední mapy.


METAR-TAF: